Pagina principale
METAR-TAF:

METAR-TAF

Aeroporti :

Aeroporto di Londra-City

Londra, Inghilterra

latitudine: 51-30N, longitudine: 000-03E, altezza: 5 m

Osservazione

Il bollettino è stato emesso 39 minuti fa, alle 09:50 UTC
Vento 10 kt da ovest/nord-ovest, variando fra ovest e nord/nord-ovest
Temperature 16°C
Umidità 59%
Pressione 1008 hPa
Visibilità 10 km o più

METAR: EGLC 070950Z AUTO 29010KT 260V330 9999 NCD 16/08 Q1008

Ora: 11:29 (10:29 UTC)

Previsione

Il bollettino è stato emesso 2 ore e 31 minuti fa, alle 07:58 UTC
Previsione valida dal 07 alle 09 UTC al 07 alle 18 UTC
Vento 8 kt da ovest
Visibilità 10 km o più
Poco nuvoloso ad un'altezza di 2500 ft
Probabilità 30% :
Temporaneamente
dal 07 alle 13 UTC al 07 alle 18 UTC
Visibilità: 8000 m
rovesci di pioggia

TAF: EGLC 070758Z 0709/0718 28008KT 9999 FEW025 PROB30 TEMPO 0713/0718 8000 -SHRA

Osservazioni e previsioni meteorologiche di più di 4000 aeroporti (messaggi METAR e TAF).

Le stazioni disponibili sono rappresentate dai dischi gialli e rossi sulla carta.

Puntare il mouse per vedere il nome della stazione.

Clicca sopra per visualizzare le osservazioni e previsioni meteorologiche.

Per cambiare la mappa : fare clic sui pulsanti verdi con una croce nera per ingrandire, il pulsante verde con un trattino per diminuire, o sulla freccia verde per le mappe adiacenti.


METAR-TAF: